sensor_id;sensor_type;location;lat;lon;timestamp;temperature;humidity
36002;DHT22;22070;50.922;5.430;2023-02-18T00:01:17;11.20;99.90
36002;DHT22;22070;50.922;5.430;2023-02-18T00:03:44;11.20;99.90
36002;DHT22;22070;50.922;5.430;2023-02-18T00:08:43;11.20;99.90
36002;DHT22;22070;50.922;5.430;2023-02-18T00:11:09;11.20;99.90
36002;DHT22;22070;50.922;5.430;2023-02-18T00:13:35;11.20;99.90
36002;DHT22;22070;50.922;5.430;2023-02-18T00:16:03;11.20;99.90
36002;DHT22;22070;50.922;5.430;2023-02-18T00:18:29;11.20;99.90
36002;DHT22;22070;50.922;5.430;2023-02-18T00:20:54;11.20;99.90
36002;DHT22;22070;50.922;5.430;2023-02-18T00:23:20;11.10;99.90
36002;DHT22;22070;50.922;5.430;2023-02-18T00:25:46;11.10;99.90
36002;DHT22;22070;50.922;5.430;2023-02-18T00:28:11;11.10;99.90
36002;DHT22;22070;50.922;5.430;2023-02-18T00:30:43;11.00;99.90
36002;DHT22;22070;50.922;5.430;2023-02-18T00:33:09;11.10;99.90
36002;DHT22;22070;50.922;5.430;2023-02-18T00:35:35;11.00;99.90
36002;DHT22;22070;50.922;5.430;2023-02-18T00:38:00;11.00;99.90
36002;DHT22;22070;50.922;5.430;2023-02-18T00:40:26;11.10;99.90
36002;DHT22;22070;50.922;5.430;2023-02-18T00:42:51;11.00;99.90
36002;DHT22;22070;50.922;5.430;2023-02-18T00:45:17;11.00;99.90
36002;DHT22;22070;50.922;5.430;2023-02-18T00:47:43;11.00;99.90
36002;DHT22;22070;50.922;5.430;2023-02-18T00:50:09;11.00;99.90
36002;DHT22;22070;50.922;5.430;2023-02-18T00:52:34;11.00;99.90
36002;DHT22;22070;50.922;5.430;2023-02-18T00:55:00;11.00;99.90
36002;DHT22;22070;50.922;5.430;2023-02-18T00:57:26;11.00;99.90
36002;DHT22;22070;50.922;5.430;2023-02-18T00:59:51;11.00;99.90
36002;DHT22;22070;50.922;5.430;2023-02-18T01:02:17;11.00;99.90
36002;DHT22;22070;50.922;5.430;2023-02-18T01:04:43;11.00;99.90
36002;DHT22;22070;50.922;5.430;2023-02-18T01:07:09;11.00;99.90
36002;DHT22;22070;50.922;5.430;2023-02-18T01:09:35;11.10;99.90
36002;DHT22;22070;50.922;5.430;2023-02-18T01:12:01;11.00;99.90
36002;DHT22;22070;50.922;5.430;2023-02-18T01:14:27;11.00;99.90
36002;DHT22;22070;50.922;5.430;2023-02-18T01:16:52;11.10;99.90
36002;DHT22;22070;50.922;5.430;2023-02-18T01:19:18;11.00;99.90
36002;DHT22;22070;50.922;5.430;2023-02-18T01:21:43;11.10;99.90
36002;DHT22;22070;50.922;5.430;2023-02-18T01:24:09;11.10;99.90
36002;DHT22;22070;50.922;5.430;2023-02-18T01:26:35;11.10;99.90
36002;DHT22;22070;50.922;5.430;2023-02-18T01:29:01;11.10;99.90
36002;DHT22;22070;50.922;5.430;2023-02-18T01:31:26;11.10;99.90
36002;DHT22;22070;50.922;5.430;2023-02-18T01:33:52;11.10;99.90
36002;DHT22;22070;50.922;5.430;2023-02-18T01:36:17;11.10;99.90
36002;DHT22;22070;50.922;5.430;2023-02-18T01:38:43;11.10;99.90
36002;DHT22;22070;50.922;5.430;2023-02-18T01:41:09;11.10;99.90
36002;DHT22;22070;50.922;5.430;2023-02-18T01:43:36;11.10;99.90
36002;DHT22;22070;50.922;5.430;2023-02-18T01:46:16;11.10;99.90
36002;DHT22;22070;50.922;5.430;2023-02-18T01:51:18;11.10;99.90
36002;DHT22;22070;50.922;5.430;2023-02-18T01:54:06;11.10;99.90
36002;DHT22;22070;50.922;5.430;2023-02-18T01:56:35;11.10;99.90
36002;DHT22;22070;50.922;5.430;2023-02-18T01:59:05;11.10;99.90
36002;DHT22;22070;50.922;5.430;2023-02-18T02:01:31;11.10;99.90
36002;DHT22;22070;50.922;5.430;2023-02-18T02:03:57;11.20;99.90
36002;DHT22;22070;50.922;5.430;2023-02-18T02:06:24;11.10;99.90
36002;DHT22;22070;50.922;5.430;2023-02-18T02:08:53;11.10;99.90
36002;DHT22;22070;50.922;5.430;2023-02-18T02:11:31;11.10;99.90
36002;DHT22;22070;50.922;5.430;2023-02-18T02:20:00;11.00;99.90
36002;DHT22;22070;50.922;5.430;2023-02-18T02:30:28;11.00;99.90
36002;DHT22;22070;50.922;5.430;2023-02-18T02:36:04;11.00;99.90
36002;DHT22;22070;50.922;5.430;2023-02-18T02:38:45;11.00;99.90
36002;DHT22;22070;50.922;5.430;2023-02-18T02:41:45;10.90;99.90
36002;DHT22;22070;50.922;5.430;2023-02-18T02:46:46;10.90;99.90
36002;DHT22;22070;50.922;5.430;2023-02-18T02:52:43;10.90;99.90
36002;DHT22;22070;50.922;5.430;2023-02-18T02:54:48;10.90;99.90
36002;DHT22;22070;50.922;5.430;2023-02-18T02:59:43;11.00;99.90
36002;DHT22;22070;50.922;5.430;2023-02-18T03:18:49;10.80;99.90
36002;DHT22;22070;50.922;5.430;2023-02-18T03:21:57;10.80;99.90
36002;DHT22;22070;50.922;5.430;2023-02-18T03:24:37;10.80;99.90
36002;DHT22;22070;50.922;5.430;2023-02-18T03:27:42;10.80;99.90
36002;DHT22;22070;50.922;5.430;2023-02-18T03:32:50;10.80;99.90
36002;DHT22;22070;50.922;5.430;2023-02-18T03:35:18;10.90;99.90
36002;DHT22;22070;50.922;5.430;2023-02-18T03:38:35;10.80;99.90
36002;DHT22;22070;50.922;5.430;2023-02-18T03:40:35;10.70;99.90
36002;DHT22;22070;50.922;5.430;2023-02-18T03:43:01;10.80;99.90
36002;DHT22;22070;50.922;5.430;2023-02-18T03:45:26;10.80;99.90
36002;DHT22;22070;50.922;5.430;2023-02-18T03:47:52;10.80;99.90
36002;DHT22;22070;50.922;5.430;2023-02-18T03:50:18;10.80;99.90
36002;DHT22;22070;50.922;5.430;2023-02-18T03:52:43;10.90;99.90
36002;DHT22;22070;50.922;5.430;2023-02-18T03:55:09;10.80;99.90
36002;DHT22;22070;50.922;5.430;2023-02-18T03:57:35;10.80;99.90
36002;DHT22;22070;50.922;5.430;2023-02-18T04:00:01;10.80;99.90
36002;DHT22;22070;50.922;5.430;2023-02-18T04:02:26;10.80;99.90
36002;DHT22;22070;50.922;5.430;2023-02-18T04:04:52;10.80;99.90
36002;DHT22;22070;50.922;5.430;2023-02-18T04:07:18;10.80;99.90
36002;DHT22;22070;50.922;5.430;2023-02-18T04:09:43;10.80;99.90
36002;DHT22;22070;50.922;5.430;2023-02-18T04:12:09;10.80;99.90
36002;DHT22;22070;50.922;5.430;2023-02-18T04:14:35;10.70;99.90
36002;DHT22;22070;50.922;5.430;2023-02-18T04:17:00;10.70;99.90
36002;DHT22;22070;50.922;5.430;2023-02-18T04:19:26;10.70;99.90
36002;DHT22;22070;50.922;5.430;2023-02-18T04:21:52;10.70;99.90
36002;DHT22;22070;50.922;5.430;2023-02-18T04:24:17;10.60;99.90
36002;DHT22;22070;50.922;5.430;2023-02-18T04:26:43;10.70;99.90
36002;DHT22;22070;50.922;5.430;2023-02-18T04:29:09;10.60;99.90
36002;DHT22;22070;50.922;5.430;2023-02-18T04:31:34;10.70;99.90
36002;DHT22;22070;50.922;5.430;2023-02-18T04:34:00;10.60;99.90
36002;DHT22;22070;50.922;5.430;2023-02-18T04:36:26;10.70;99.90
36002;DHT22;22070;50.922;5.430;2023-02-18T04:38:51;10.70;99.90
36002;DHT22;22070;50.922;5.430;2023-02-18T04:41:17;10.70;99.90
36002;DHT22;22070;50.922;5.430;2023-02-18T04:43:43;10.70;99.90
36002;DHT22;22070;50.922;5.430;2023-02-18T04:46:08;10.70;99.90
36002;DHT22;22070;50.922;5.430;2023-02-18T04:48:34;10.70;99.90
36002;DHT22;22070;50.922;5.430;2023-02-18T04:51:00;10.70;99.90
36002;DHT22;22070;50.922;5.430;2023-02-18T04:53:26;10.70;99.90
36002;DHT22;22070;50.922;5.430;2023-02-18T04:55:52;10.70;99.90
36002;DHT22;22070;50.922;5.430;2023-02-18T04:58:18;10.70;99.90
36002;DHT22;22070;50.922;5.430;2023-02-18T05:00:44;10.80;99.90
36002;DHT22;22070;50.922;5.430;2023-02-18T05:03:10;10.80;99.90
36002;DHT22;22070;50.922;5.430;2023-02-18T05:05:36;10.80;99.90
36002;DHT22;22070;50.922;5.430;2023-02-18T05:08:02;10.80;99.90
36002;DHT22;22070;50.922;5.430;2023-02-18T05:10:28;10.80;99.90
36002;DHT22;22070;50.922;5.430;2023-02-18T05:12:53;10.80;99.90
36002;DHT22;22070;50.922;5.430;2023-02-18T05:15:19;10.80;99.90
36002;DHT22;22070;50.922;5.430;2023-02-18T05:17:44;10.90;99.90
36002;DHT22;22070;50.922;5.430;2023-02-18T05:20:10;10.80;99.90
36002;DHT22;22070;50.922;5.430;2023-02-18T05:22:37;10.80;99.90
36002;DHT22;22070;50.922;5.430;2023-02-18T05:25:04;10.90;99.90
36002;DHT22;22070;50.922;5.430;2023-02-18T05:27:30;10.90;99.90
36002;DHT22;22070;50.922;5.430;2023-02-18T05:29:55;10.90;99.90
36002;DHT22;22070;50.922;5.430;2023-02-18T05:32:22;10.80;99.90
36002;DHT22;22070;50.922;5.430;2023-02-18T05:34:47;10.80;99.90
36002;DHT22;22070;50.922;5.430;2023-02-18T05:37:13;10.80;99.90
36002;DHT22;22070;50.922;5.430;2023-02-18T05:39:40;10.90;99.90
36002;DHT22;22070;50.922;5.430;2023-02-18T05:42:06;10.80;99.90
36002;DHT22;22070;50.922;5.430;2023-02-18T05:44:32;10.80;99.90
36002;DHT22;22070;50.922;5.430;2023-02-18T05:47:00;10.80;99.90
36002;DHT22;22070;50.922;5.430;2023-02-18T05:49:27;10.80;99.90
36002;DHT22;22070;50.922;5.430;2023-02-18T05:51:52;10.70;99.90
36002;DHT22;22070;50.922;5.430;2023-02-18T05:54:18;10.80;99.90
36002;DHT22;22070;50.922;5.430;2023-02-18T05:56:44;10.80;99.90
36002;DHT22;22070;50.922;5.430;2023-02-18T05:59:09;10.80;99.90
36002;DHT22;22070;50.922;5.430;2023-02-18T06:01:35;10.80;99.90
36002;DHT22;22070;50.922;5.430;2023-02-18T06:04:01;10.80;99.90
36002;DHT22;22070;50.922;5.430;2023-02-18T06:06:26;10.70;99.90
36002;DHT22;22070;50.922;5.430;2023-02-18T06:08:52;10.70;99.90
36002;DHT22;22070;50.922;5.430;2023-02-18T06:11:18;10.70;99.90
36002;DHT22;22070;50.922;5.430;2023-02-18T06:13:43;10.60;99.90
36002;DHT22;22070;50.922;5.430;2023-02-18T06:16:09;10.60;99.90
36002;DHT22;22070;50.922;5.430;2023-02-18T06:18:35;10.60;99.90
36002;DHT22;22070;50.922;5.430;2023-02-18T06:21:01;10.50;99.90
36002;DHT22;22070;50.922;5.430;2023-02-18T06:23:26;10.50;99.90
36002;DHT22;22070;50.922;5.430;2023-02-18T06:25:52;10.50;99.90
36002;DHT22;22070;50.922;5.430;2023-02-18T06:28:18;10.50;99.90
36002;DHT22;22070;50.922;5.430;2023-02-18T06:30:44;10.50;99.90
36002;DHT22;22070;50.922;5.430;2023-02-18T06:33:10;10.50;99.90
36002;DHT22;22070;50.922;5.430;2023-02-18T06:35:35;10.40;99.90
36002;DHT22;22070;50.922;5.430;2023-02-18T06:38:01;10.40;99.90
36002;DHT22;22070;50.922;5.430;2023-02-18T06:40:27;10.40;99.90
36002;DHT22;22070;50.922;5.430;2023-02-18T06:42:52;10.40;99.90
36002;DHT22;22070;50.922;5.430;2023-02-18T06:45:18;10.40;99.90
36002;DHT22;22070;50.922;5.430;2023-02-18T06:47:44;10.40;99.90
36002;DHT22;22070;50.922;5.430;2023-02-18T06:50:10;10.40;99.90
36002;DHT22;22070;50.922;5.430;2023-02-18T06:52:35;10.30;99.90
36002;DHT22;22070;50.922;5.430;2023-02-18T06:55:04;10.30;99.90
36002;DHT22;22070;50.922;5.430;2023-02-18T06:57:30;10.40;99.90
36002;DHT22;22070;50.922;5.430;2023-02-18T06:59:55;10.30;99.90
36002;DHT22;22070;50.922;5.430;2023-02-18T07:02:21;10.30;99.90
36002;DHT22;22070;50.922;5.430;2023-02-18T07:04:46;10.30;99.90
36002;DHT22;22070;50.922;5.430;2023-02-18T07:07:12;10.30;99.90
36002;DHT22;22070;50.922;5.430;2023-02-18T07:09:38;10.20;99.90
36002;DHT22;22070;50.922;5.430;2023-02-18T07:12:03;10.30;99.90
36002;DHT22;22070;50.922;5.430;2023-02-18T07:14:29;10.30;99.90
36002;DHT22;22070;50.922;5.430;2023-02-18T07:16:55;10.30;99.90
36002;DHT22;22070;50.922;5.430;2023-02-18T07:19:20;10.30;99.90
36002;DHT22;22070;50.922;5.430;2023-02-18T07:21:46;10.30;99.90
36002;DHT22;22070;50.922;5.430;2023-02-18T07:24:12;10.30;99.90
36002;DHT22;22070;50.922;5.430;2023-02-18T07:26:37;10.30;99.90
36002;DHT22;22070;50.922;5.430;2023-02-18T07:29:03;10.30;99.90
36002;DHT22;22070;50.922;5.430;2023-02-18T07:31:29;10.30;99.90
36002;DHT22;22070;50.922;5.430;2023-02-18T07:33:54;10.30;99.90
36002;DHT22;22070;50.922;5.430;2023-02-18T07:36:20;10.30;99.90
36002;DHT22;22070;50.922;5.430;2023-02-18T07:38:46;10.30;99.90
36002;DHT22;22070;50.922;5.430;2023-02-18T07:41:18;10.30;99.90
36002;DHT22;22070;50.922;5.430;2023-02-18T07:43:44;10.30;99.90
36002;DHT22;22070;50.922;5.430;2023-02-18T07:46:10;10.30;99.90
36002;DHT22;22070;50.922;5.430;2023-02-18T07:48:35;10.30;99.90
36002;DHT22;22070;50.922;5.430;2023-02-18T07:51:07;10.20;99.90
36002;DHT22;22070;50.922;5.430;2023-02-18T07:53:34;10.30;99.90
36002;DHT22;22070;50.922;5.430;2023-02-18T07:56:00;10.40;99.90
36002;DHT22;22070;50.922;5.430;2023-02-18T07:58:28;10.30;99.90
36002;DHT22;22070;50.922;5.430;2023-02-18T08:00:55;10.40;99.90
36002;DHT22;22070;50.922;5.430;2023-02-18T08:03:23;10.40;99.90
36002;DHT22;22070;50.922;5.430;2023-02-18T08:05:50;10.40;99.90
36002;DHT22;22070;50.922;5.430;2023-02-18T08:08:18;10.40;99.90
36002;DHT22;22070;50.922;5.430;2023-02-18T08:10:45;10.40;99.90
36002;DHT22;22070;50.922;5.430;2023-02-18T08:13:11;10.50;99.90
36002;DHT22;22070;50.922;5.430;2023-02-18T08:15:38;10.50;99.90
36002;DHT22;22070;50.922;5.430;2023-02-18T08:18:04;10.50;99.90
36002;DHT22;22070;50.922;5.430;2023-02-18T08:20:30;10.50;99.90
36002;DHT22;22070;50.922;5.430;2023-02-18T08:22:56;10.40;99.90
36002;DHT22;22070;50.922;5.430;2023-02-18T08:25:21;10.40;99.90
36002;DHT22;22070;50.922;5.430;2023-02-18T08:27:47;10.40;99.90
36002;DHT22;22070;50.922;5.430;2023-02-18T08:30:13;10.30;99.90
36002;DHT22;22070;50.922;5.430;2023-02-18T08:32:39;10.40;99.90
36002;DHT22;22070;50.922;5.430;2023-02-18T08:35:05;10.40;99.90
36002;DHT22;22070;50.922;5.430;2023-02-18T08:37:32;10.40;99.90
36002;DHT22;22070;50.922;5.430;2023-02-18T08:39:57;10.40;99.90
36002;DHT22;22070;50.922;5.430;2023-02-18T08:42:23;10.40;99.90
36002;DHT22;22070;50.922;5.430;2023-02-18T08:44:49;10.50;99.90
36002;DHT22;22070;50.922;5.430;2023-02-18T08:47:14;10.50;99.90
36002;DHT22;22070;50.922;5.430;2023-02-18T08:49:40;10.50;99.90
36002;DHT22;22070;50.922;5.430;2023-02-18T08:52:06;10.50;99.90
36002;DHT22;22070;50.922;5.430;2023-02-18T08:54:31;10.50;99.90
36002;DHT22;22070;50.922;5.430;2023-02-18T08:56:57;10.50;99.90
36002;DHT22;22070;50.922;5.430;2023-02-18T08:59:23;10.60;99.90
36002;DHT22;22070;50.922;5.430;2023-02-18T09:01:49;10.60;99.90
36002;DHT22;22070;50.922;5.430;2023-02-18T09:04:15;10.60;99.90
36002;DHT22;22070;50.922;5.430;2023-02-18T09:06:41;10.70;99.90
36002;DHT22;22070;50.922;5.430;2023-02-18T09:09:06;10.70;99.90
36002;DHT22;22070;50.922;5.430;2023-02-18T09:11:32;10.70;99.90
36002;DHT22;22070;50.922;5.430;2023-02-18T09:13:58;10.70;99.90
36002;DHT22;22070;50.922;5.430;2023-02-18T09:16:24;10.70;99.90
36002;DHT22;22070;50.922;5.430;2023-02-18T09:18:51;10.80;99.90
36002;DHT22;22070;50.922;5.430;2023-02-18T09:21:17;10.80;99.90
36002;DHT22;22070;50.922;5.430;2023-02-18T09:23:45;10.80;99.90
36002;DHT22;22070;50.922;5.430;2023-02-18T09:26:14;10.80;99.90
36002;DHT22;22070;50.922;5.430;2023-02-18T09:28:40;10.90;99.90
36002;DHT22;22070;50.922;5.430;2023-02-18T09:31:08;10.90;99.90
36002;DHT22;22070;50.922;5.430;2023-02-18T09:33:35;10.90;99.90
36002;DHT22;22070;50.922;5.430;2023-02-18T09:36:02;10.90;99.90
36002;DHT22;22070;50.922;5.430;2023-02-18T09:38:27;10.90;99.90
36002;DHT22;22070;50.922;5.430;2023-02-18T09:40:53;10.90;99.90
36002;DHT22;22070;50.922;5.430;2023-02-18T09:43:26;10.90;99.90
36002;DHT22;22070;50.922;5.430;2023-02-18T09:45:54;10.90;99.90
36002;DHT22;22070;50.922;5.430;2023-02-18T09:48:26;10.90;99.90
36002;DHT22;22070;50.922;5.430;2023-02-18T09:50:52;10.90;99.90
36002;DHT22;22070;50.922;5.430;2023-02-18T09:53:20;10.80;99.90
36002;DHT22;22070;50.922;5.430;2023-02-18T09:55:47;10.90;99.90
36002;DHT22;22070;50.922;5.430;2023-02-18T09:58:15;10.80;99.90
36002;DHT22;22070;50.922;5.430;2023-02-18T10:00:44;10.80;99.90
36002;DHT22;22070;50.922;5.430;2023-02-18T10:03:24;10.90;99.90
36002;DHT22;22070;50.922;5.430;2023-02-18T10:08:25;10.90;99.90
36002;DHT22;22070;50.922;5.430;2023-02-18T10:10:52;10.90;99.90
36002;DHT22;22070;50.922;5.430;2023-02-18T10:13:22;10.90;99.90
36002;DHT22;22070;50.922;5.430;2023-02-18T10:15:48;10.90;99.90
36002;DHT22;22070;50.922;5.430;2023-02-18T10:18:31;10.90;99.90
36002;DHT22;22070;50.922;5.430;2023-02-18T10:21:19;10.90;99.90
36002;DHT22;22070;50.922;5.430;2023-02-18T10:26:22;10.80;99.90
36002;DHT22;22070;50.922;5.430;2023-02-18T10:28:47;10.80;99.90
36002;DHT22;22070;50.922;5.430;2023-02-18T10:31:35;10.80;99.90
36002;DHT22;22070;50.922;5.430;2023-02-18T10:34:37;10.80;99.90
36002;DHT22;22070;50.922;5.430;2023-02-18T10:42:45;10.80;99.90
36002;DHT22;22070;50.922;5.430;2023-02-18T10:45:23;10.80;99.90
36002;DHT22;22070;50.922;5.430;2023-02-18T10:50:54;10.70;99.90
36002;DHT22;22070;50.922;5.430;2023-02-18T10:53:33;10.70;99.90
36002;DHT22;22070;50.922;5.430;2023-02-18T10:56:00;10.70;99.90
36002;DHT22;22070;50.922;5.430;2023-02-18T11:00:52;10.70;99.90
36002;DHT22;22070;50.922;5.430;2023-02-18T11:03:21;10.80;99.90
36002;DHT22;22070;50.922;5.430;2023-02-18T11:05:50;10.80;99.90
36002;DHT22;22070;50.922;5.430;2023-02-18T11:08:20;10.80;99.90
36002;DHT22;22070;50.922;5.430;2023-02-18T11:10:47;10.80;99.90
36002;DHT22;22070;50.922;5.430;2023-02-18T11:13:14;10.90;99.90
36002;DHT22;22070;50.922;5.430;2023-02-18T11:16:00;10.80;99.90
36002;DHT22;22070;50.922;5.430;2023-02-18T11:18:40;10.80;99.90
36002;DHT22;22070;50.922;5.430;2023-02-18T11:21:28;10.80;99.90
36002;DHT22;22070;50.922;5.430;2023-02-18T11:23:55;10.80;99.90
36002;DHT22;22070;50.922;5.430;2023-02-18T11:26:29;10.70;99.90
36002;DHT22;22070;50.922;5.430;2023-02-18T11:29:19;10.70;99.90
36002;DHT22;22070;50.922;5.430;2023-02-18T11:31:45;10.80;99.90
36002;DHT22;22070;50.922;5.430;2023-02-18T11:34:20;10.80;99.90
36002;DHT22;22070;50.922;5.430;2023-02-18T11:36:47;10.80;99.90
36002;DHT22;22070;50.922;5.430;2023-02-18T11:39:17;10.80;99.90
36002;DHT22;22070;50.922;5.430;2023-02-18T11:44:32;10.90;99.90
36002;DHT22;22070;50.922;5.430;2023-02-18T11:49:34;11.00;99.90
36002;DHT22;22070;50.922;5.430;2023-02-18T11:52:24;11.00;99.90
36002;DHT22;22070;50.922;5.430;2023-02-18T11:55:05;11.00;99.90
36002;DHT22;22070;50.922;5.430;2023-02-18T11:57:37;11.00;99.90
36002;DHT22;22070;50.922;5.430;2023-02-18T12:02:46;10.90;99.90
36002;DHT22;22070;50.922;5.430;2023-02-18T12:05:17;10.90;99.90
36002;DHT22;22070;50.922;5.430;2023-02-18T12:08:10;10.80;99.90
36002;DHT22;22070;50.922;5.430;2023-02-18T12:10:42;10.80;99.90
36002;DHT22;22070;50.922;5.430;2023-02-18T12:13:31;10.80;99.90
36002;DHT22;22070;50.922;5.430;2023-02-18T12:22:33;10.60;99.90
36002;DHT22;22070;50.922;5.430;2023-02-18T12:27:42;10.60;99.90
36002;DHT22;22070;50.922;5.430;2023-02-18T12:41:22;10.50;99.90
36002;DHT22;22070;50.922;5.430;2023-02-18T12:57:38;10.50;99.90
36002;DHT22;22070;50.922;5.430;2023-02-18T13:03:09;10.60;99.90
36002;DHT22;22070;50.922;5.430;2023-02-18T13:08:22;10.60;99.90
36002;DHT22;22070;50.922;5.430;2023-02-18T13:13:19;10.60;99.90
36002;DHT22;22070;50.922;5.430;2023-02-18T13:18:29;10.60;99.90
36002;DHT22;22070;50.922;5.430;2023-02-18T13:21:00;10.70;99.90
36002;DHT22;22070;50.922;5.430;2023-02-18T13:23:33;10.70;99.90
36002;DHT22;22070;50.922;5.430;2023-02-18T13:26:03;10.70;99.90
36002;DHT22;22070;50.922;5.430;2023-02-18T13:34:20;10.60;99.90
36002;DHT22;22070;50.922;5.430;2023-02-18T13:39:33;10.70;99.90
36002;DHT22;22070;50.922;5.430;2023-02-18T13:47:40;10.90;99.90
36002;DHT22;22070;50.922;5.430;2023-02-18T13:50:26;10.90;99.90
36002;DHT22;22070;50.922;5.430;2023-02-18T13:55:41;10.80;99.90
36002;DHT22;22070;50.922;5.430;2023-02-18T13:58:18;10.80;99.90
36002;DHT22;22070;50.922;5.430;2023-02-18T14:01:00;10.80;99.90
36002;DHT22;22070;50.922;5.430;2023-02-18T14:05:55;10.80;99.90
36002;DHT22;22070;50.922;5.430;2023-02-18T14:08:36;10.80;99.90
36002;DHT22;22070;50.922;5.430;2023-02-18T14:16:07;10.80;99.90
36002;DHT22;22070;50.922;5.430;2023-02-18T14:18:54;10.80;99.90
36002;DHT22;22070;50.922;5.430;2023-02-18T14:21:38;10.70;99.90
36002;DHT22;22070;50.922;5.430;2023-02-18T14:24:05;10.80;99.90
36002;DHT22;22070;50.922;5.430;2023-02-18T14:26:35;10.80;99.90
36002;DHT22;22070;50.922;5.430;2023-02-18T14:29:09;10.80;99.90
36002;DHT22;22070;50.922;5.430;2023-02-18T14:32:09;10.80;99.90
36002;DHT22;22070;50.922;5.430;2023-02-18T14:34:52;10.80;99.90
36002;DHT22;22070;50.922;5.430;2023-02-18T14:40:23;10.80;99.90
36002;DHT22;22070;50.922;5.430;2023-02-18T14:51:26;10.70;99.90
36002;DHT22;22070;50.922;5.430;2023-02-18T14:53:53;10.70;99.90
36002;DHT22;22070;50.922;5.430;2023-02-18T14:56:20;10.70;99.90
36002;DHT22;22070;50.922;5.430;2023-02-18T14:58:59;10.70;99.90
36002;DHT22;22070;50.922;5.430;2023-02-18T15:01:35;10.70;99.90
36002;DHT22;22070;50.922;5.430;2023-02-18T15:04:02;10.80;99.90
36002;DHT22;22070;50.922;5.430;2023-02-18T15:06:31;10.80;99.90
36002;DHT22;22070;50.922;5.430;2023-02-18T15:09:19;10.80;99.90
36002;DHT22;22070;50.922;5.430;2023-02-18T15:14:20;10.80;99.90
36002;DHT22;22070;50.922;5.430;2023-02-18T15:16:48;10.80;99.90
36002;DHT22;22070;50.922;5.430;2023-02-18T15:19:23;10.80;99.90
36002;DHT22;22070;50.922;5.430;2023-02-18T15:21:52;10.70;99.90
36002;DHT22;22070;50.922;5.430;2023-02-18T15:24:36;10.80;99.90
36002;DHT22;22070;50.922;5.430;2023-02-18T15:27:10;10.80;99.90
36002;DHT22;22070;50.922;5.430;2023-02-18T15:29:37;10.80;99.90
36002;DHT22;22070;50.922;5.430;2023-02-18T15:32:24;10.80;99.90
36002;DHT22;22070;50.922;5.430;2023-02-18T15:34:53;10.90;99.90
36002;DHT22;22070;50.922;5.430;2023-02-18T15:37:20;10.80;99.90
36002;DHT22;22070;50.922;5.430;2023-02-18T15:39:46;10.80;99.90
36002;DHT22;22070;50.922;5.430;2023-02-18T15:45:08;10.90;99.90
36002;DHT22;22070;50.922;5.430;2023-02-18T15:47:42;10.90;99.90
36002;DHT22;22070;50.922;5.430;2023-02-18T15:50:24;10.90;99.90
36002;DHT22;22070;50.922;5.430;2023-02-18T15:52:51;10.90;99.90
36002;DHT22;22070;50.922;5.430;2023-02-18T15:55:24;10.90;99.90
36002;DHT22;22070;50.922;5.430;2023-02-18T15:57:52;10.90;99.90
36002;DHT22;22070;50.922;5.430;2023-02-18T16:00:38;10.90;99.90
36002;DHT22;22070;50.922;5.430;2023-02-18T16:03:13;10.90;99.90
36002;DHT22;22070;50.922;5.430;2023-02-18T16:05:40;10.90;99.90
36002;DHT22;22070;50.922;5.430;2023-02-18T16:08:24;10.90;99.90
36002;DHT22;22070;50.922;5.430;2023-02-18T16:11:01;10.90;99.90
36002;DHT22;22070;50.922;5.430;2023-02-18T16:13:27;10.90;99.90
36002;DHT22;22070;50.922;5.430;2023-02-18T16:15:56;10.90;99.90
36002;DHT22;22070;50.922;5.430;2023-02-18T16:18:24;10.90;99.90
36002;DHT22;22070;50.922;5.430;2023-02-18T16:21:02;10.90;99.90
36002;DHT22;22070;50.922;5.430;2023-02-18T16:23:42;10.90;99.90
36002;DHT22;22070;50.922;5.430;2023-02-18T16:26:11;10.90;99.90
36002;DHT22;22070;50.922;5.430;2023-02-18T16:28:42;11.00;99.90
36002;DHT22;22070;50.922;5.430;2023-02-18T16:31:08;10.90;99.90
36002;DHT22;22070;50.922;5.430;2023-02-18T16:33:34;11.00;99.90
36002;DHT22;22070;50.922;5.430;2023-02-18T16:35:59;10.90;99.90
36002;DHT22;22070;50.922;5.430;2023-02-18T16:38:25;10.90;99.90
36002;DHT22;22070;50.922;5.430;2023-02-18T16:40:52;10.90;99.90
36002;DHT22;22070;50.922;5.430;2023-02-18T16:43:21;10.90;99.90
36002;DHT22;22070;50.922;5.430;2023-02-18T16:45:50;10.90;99.90
36002;DHT22;22070;50.922;5.430;2023-02-18T16:50:45;10.90;99.90
36002;DHT22;22070;50.922;5.430;2023-02-18T16:53:12;10.80;99.90
36002;DHT22;22070;50.922;5.430;2023-02-18T16:55:38;10.80;99.90
36002;DHT22;22070;50.922;5.430;2023-02-18T16:58:04;10.80;99.90
36002;DHT22;22070;50.922;5.430;2023-02-18T17:00:30;10.80;99.90
36002;DHT22;22070;50.922;5.430;2023-02-18T17:02:58;10.80;99.90
36002;DHT22;22070;50.922;5.430;2023-02-18T17:05:28;10.90;99.90
36002;DHT22;22070;50.922;5.430;2023-02-18T17:07:58;10.90;99.90
36002;DHT22;22070;50.922;5.430;2023-02-18T17:10:24;10.90;99.90
36002;DHT22;22070;50.922;5.430;2023-02-18T17:12:49;10.90;99.90
36002;DHT22;22070;50.922;5.430;2023-02-18T17:15:35;10.90;99.90
36002;DHT22;22070;50.922;5.430;2023-02-18T17:18:02;10.90;99.90
36002;DHT22;22070;50.922;5.430;2023-02-18T17:20:31;10.90;99.90
36002;DHT22;22070;50.922;5.430;2023-02-18T17:22:57;10.90;99.90
36002;DHT22;22070;50.922;5.430;2023-02-18T17:25:31;10.90;99.90
36002;DHT22;22070;50.922;5.430;2023-02-18T17:27:57;10.90;99.90
36002;DHT22;22070;50.922;5.430;2023-02-18T17:30:23;10.90;99.90
36002;DHT22;22070;50.922;5.430;2023-02-18T17:32:49;10.90;99.90
36002;DHT22;22070;50.922;5.430;2023-02-18T17:35:21;10.90;99.90
36002;DHT22;22070;50.922;5.430;2023-02-18T17:37:47;10.80;99.90
36002;DHT22;22070;50.922;5.430;2023-02-18T17:40:19;10.90;99.90
36002;DHT22;22070;50.922;5.430;2023-02-18T17:42:45;10.90;99.90
36002;DHT22;22070;50.922;5.430;2023-02-18T17:45:52;10.90;99.90
36002;DHT22;22070;50.922;5.430;2023-02-18T17:48:19;10.90;99.90
36002;DHT22;22070;50.922;5.430;2023-02-18T17:50:44;10.80;99.90
36002;DHT22;22070;50.922;5.430;2023-02-18T17:53:14;10.80;99.90
36002;DHT22;22070;50.922;5.430;2023-02-18T17:55:41;10.90;99.90
36002;DHT22;22070;50.922;5.430;2023-02-18T17:58:08;10.80;99.90
36002;DHT22;22070;50.922;5.430;2023-02-18T18:00:38;10.80;99.90
36002;DHT22;22070;50.922;5.430;2023-02-18T18:03:04;10.80;99.90
36002;DHT22;22070;50.922;5.430;2023-02-18T18:05:36;10.80;99.90
36002;DHT22;22070;50.922;5.430;2023-02-18T18:08:03;10.80;99.90
36002;DHT22;22070;50.922;5.430;2023-02-18T18:10:32;10.80;99.90
36002;DHT22;22070;50.922;5.430;2023-02-18T18:13:01;10.80;99.90
36002;DHT22;22070;50.922;5.430;2023-02-18T18:15:29;10.90;99.90
36002;DHT22;22070;50.922;5.430;2023-02-18T18:17:56;10.80;99.90
36002;DHT22;22070;50.922;5.430;2023-02-18T18:20:23;10.80;99.90
36002;DHT22;22070;50.922;5.430;2023-02-18T18:22:49;10.70;99.90
36002;DHT22;22070;50.922;5.430;2023-02-18T18:27:43;10.70;99.90